Terminal Aerodrome Forecast
Issued by NWS La Crosse, WI

Home | Current Version | Previous Version | Text Only | Print | Product List | Glossary On
Versions: 1 2 3 4 5 6 7 8 9 10 11 12 13 14 15 16 17 18 19 20
000
FTUS43 KARX 251425 AAA
TAFRST
TAF AMD
KRST 251425Z 2514/2612 05015KT P6SM OVC010
     FM251700 05014G22KT P6SM OVC008
     FM251900 06014G23KT 5SM BR VCSH OVC008
     FM260100 06011KT 4SM BR OVC003
     FM260600 05010KT 2SM BR OVC003=

USA.gov is the U.S. government's official web portal to all federal, state and local government web resources and services.